ADDS METAR Data INFO
IDs: Format: Raw Decoded Include TAF

Data at: 1748 UTC 15 Dec 2017

KRZL 151735Z AUTO 27014G21KT 10SM OVC032 00/M11 A2996 RMK AO2
KRZL 151715Z AUTO 27017G22KT 10SM OVC032 M01/M11 A2996 RMK AO2
KRZL 151655Z AUTO 26017G21KT 10SM OVC032 M01/M11 A2996 RMK AO2
KRZL 151635Z AUTO 27018G22KT 10SM OVC032 M01/M11 A2997 RMK AO2
KRZL 151615Z AUTO 28017G22KT 10SM OVC030 M01/M10 A2997 RMK AO2
KRZL 151555Z AUTO 27018G25KT 10SM SCT023 OVC032 M01/M10 A2997 RMK AO2
KRZL 151535Z AUTO 26015G23KT 7SM -SN BKN023 OVC028 M02/M07 A2996 RMK AO2
KRZL 151515Z AUTO 25012KT 10SM BKN020 OVC028 M02/M07 A2996 RMK AO2
KRZL 151455Z AUTO 25013KT 10SM OVC026 M02/M06 A2996 RMK AO2
KRZL 151435Z AUTO 24011KT 10SM OVC025 M02/M07 A2996 RMK AO2
KRZL 151415Z AUTO 24012KT 10SM OVC029 M02/M07 A2996 RMK AO2
KRZL 151355Z AUTO 24010KT 10SM SCT021 OVC029 M03/M07 A2996 RMK AO2
KRZL 151335Z AUTO 24011KT 10SM SCT021 BKN027 OVC034 M03/M07 A2996 RMK AO2
KRZL 151315Z AUTO 23012KT 7SM -SN OVC025 M03/M07 A2996 RMK AO2
KRZL 151255Z AUTO 23012KT 10SM OVC025 M03/M08 A2996 RMK AO2
KRZL 151235Z AUTO 22009KT 10SM BKN025 BKN031 OVC049 M04/M08 A2996 RMK AO2
KRZL 151215Z AUTO 23009KT 10SM SCT025 OVC047 M04/M08 A2997 RMK AO2
KRZL 151155Z AUTO 23008KT 10SM OVC040 M04/M09 A2997 RMK AO2
KRZL 151135Z AUTO 21008KT 10SM OVC038 M05/M09 A2997 RMK AO2
KRZL 151115Z AUTO 21007KT 10SM SCT033 OVC040 M05/M10 A2997 RMK AO2
KRZL 151055Z AUTO 21007KT 10SM BKN030 OVC035 M05/M10 A2998 RMK AO2
KRZL 151035Z AUTO 22006KT 10SM OVC030 M05/M10 A2999 RMK AO2
KRZL 151015Z AUTO 21005KT 10SM OVC030 M06/M10 A2999 RMK AO2
KRZL 150955Z AUTO 21005KT 10SM OVC030 M06/M10 A2999 RMK AO2
KRZL 150935Z AUTO 21003KT 10SM OVC030 M06/M10 A2999 RMK AO2
KRZL 150915Z AUTO 22004KT 10SM OVC030 M07/M10 A3000 RMK AO2
KRZL 150855Z AUTO 23004KT 10SM OVC030 M07/M10 A3001 RMK AO2
KRZL 150835Z AUTO 23003KT 10SM BKN030 BKN036 OVC095 M08/M11 A3001 RMK AO2
KRZL 150815Z AUTO 24003KT 10SM SCT036 SCT095 M08/M11 A3002 RMK AO2
KRZL 150755Z AUTO 22003KT 10SM SCT095 M08/M11 A3002 RMK AO2
KRZL 150735Z AUTO 23003KT 10SM CLR M09/M11 A3002 RMK AO2
KRZL 150715Z AUTO 21003KT 10SM CLR M09/M11 A3002 RMK AO2
KRZL 150655Z AUTO 00000KT 10SM CLR M08/M11 A3002 RMK AO2
KRZL 150635Z AUTO 00000KT 10SM CLR M08/M11 A3003 RMK AO2
KRZL 150615Z AUTO 23004KT 10SM CLR M07/M10 A3004 RMK AO2
KRZL 150555Z AUTO 00000KT 10SM CLR M08/M10 A3004 RMK AO2
KRZL 150535Z AUTO 00000KT 10SM CLR M08/M10 A3005 RMK AO2
KRZL 150515Z AUTO 00000KT 10SM CLR M07/M10 A3006 RMK AO2
KRZL 150455Z AUTO 00000KT 10SM CLR M07/M11 A3007 RMK AO2
KRZL 150435Z AUTO 00000KT 10SM CLR M06/M10 A3007 RMK AO2
KRZL 150415Z AUTO 00000KT 10SM CLR M06/M09 A3007 RMK AO2
KRZL 150355Z AUTO 00000KT 10SM CLR M07/M10 A3008 RMK AO2
KRZL 150335Z AUTO 00000KT 10SM CLR M06/M09 A3009 RMK AO2
KRZL 150315Z AUTO 00000KT 10SM CLR M06/M09 A3009 RMK AO2
KRZL 150255Z AUTO 00000KT 10SM BKN033 M06/M09 A3009 RMK AO2
KRZL 150235Z AUTO 00000KT 10SM BKN033 M06/M09 A3009 RMK AO2
KRZL 150215Z AUTO 00000KT 10SM CLR M06/M10 A3009 RMK AO2
KRZL 150155Z AUTO 00000KT 10SM CLR M05/M09 A3009 RMK AO2
KRZL 150135Z AUTO 00000KT 10SM CLR M05/M09 A3009 RMK AO2
KRZL 150115Z AUTO 00000KT 10SM CLR M05/M10 A3009 RMK AO2
KRZL 150055Z AUTO 00000KT 10SM CLR M04/M09 A3009 RMK AO2
KRZL 150035Z AUTO 00000KT 10SM CLR M04/M09 A3008 RMK AO2
KRZL 150015Z AUTO 00000KT 10SM CLR M03/M09 A3008 RMK AO2
KRZL 142355Z AUTO 00000KT 10SM CLR M03/M09 A3008 RMK AO2
KRZL 142335Z AUTO 00000KT 10SM CLR M03/M09 A3008 RMK AO2
KRZL 142315Z AUTO 00000KT 10SM CLR M03/M09 A3008 RMK AO2
KRZL 142255Z AUTO 00000KT 10SM CLR M03/M09 A3007 RMK AO2
KRZL 142235Z AUTO 00000KT 10SM CLR M03/M09 A3007 RMK AO2
KRZL 142215Z AUTO 20003KT 10SM CLR M02/M09 A3007 RMK AO2
KRZL 142155Z AUTO 19003KT 10SM CLR M02/M09 A3007 RMK AO2
KRZL 142135Z AUTO 20003KT 10SM SCT026 SCT031 M02/M10 A3006 RMK AO2
KRZL 142115Z AUTO 22005KT 10SM SCT026 SCT031 M01/M10 A3006 RMK AO2
KRZL 142055Z AUTO 20004KT 10SM SCT026 M01/M10 A3006 RMK AO2
KRZL 142035Z AUTO 00000KT 10SM CLR M01/M10 A3005 RMK AO2
KRZL 142015Z AUTO 00000KT 10SM SCT037 SCT045 M02/M10 A3005 RMK AO2
KRZL 141955Z AUTO 00000KT 10SM OVC047 M01/M10 A3005 RMK AO2
KRZL 141935Z AUTO 00000KT 10SM OVC047 M02/M10 A3005 RMK AO2
KRZL 141915Z AUTO 00000KT 10SM SCT024 OVC047 M02/M09 A3005 RMK AO2
KRZL 141855Z AUTO 00000KT 10SM OVC049 M02/M09 A3005 RMK AO2
KRZL 141835Z AUTO 00000KT 10SM OVC049 M02/M09 A3006 RMK AO2
KRZL 141815Z AUTO 22003KT 10SM OVC049 M02/M09 A3006 RMK AO2
KRZL 141755Z AUTO 19004KT 10SM OVC049 M02/M08 A3007 RMK AO2
KRZL 141735Z AUTO 00000KT 10SM OVC049 M03/M09 A3007 RMK AO2
KRZL 141715Z AUTO 14003KT 10SM OVC047 M03/M09 A3007 RMK AO2
KRZL 141655Z AUTO 00000KT 10SM OVC047 M03/M09 A3008 RMK AO2
KRZL 141635Z AUTO 00000KT 4SM -SN OVC047 M04/M10 A3009 RMK AO2
KRZL 141615Z AUTO 00000KT 7SM -SN SCT022 OVC047 M04/M10 A3009 RMK AO2
KRZL 141555Z AUTO 00000KT 10SM -SN OVC022 M04/M11 A3009 RMK AO2
KRZL 141535Z AUTO 00000KT 10SM -SN BKN020 BKN034 OVC045 M04/M11 A3009 RMK AO2
KRZL 141515Z AUTO 09003KT 10SM -SN SCT020 SCT034 OVC043 M04/M11 A3007 RMK AO2
KRZL 141455Z AUTO 07004KT 10SM -SN SCT020 OVC043 M05/M11 A3006 RMK AO2
KRZL 141435Z AUTO 09005KT 7SM -SN OVC045 M05/M10 A3004 RMK AO2
KRZL 141415Z AUTO 08005KT 7SM -SN OVC041 M04/M10 A3003 RMK AO2
KRZL 141355Z AUTO 08005KT 10SM -SN SCT028 OVC037 M04/M10 A3002 RMK AO2
KRZL 141335Z AUTO 09003KT 7SM -SN SCT028 OVC035 M04/M10 A3000 RMK AO2
KRZL 141315Z AUTO 06004KT 10SM -SN BKN022 BKN028 OVC033 M04/M09 A2999 RMK AO2
KRZL 141255Z AUTO 07006KT 7SM -SN BKN022 OVC034 M04/M08 A2999 RMK AO2
KRZL 141235Z AUTO 06007KT 3SM -SN SCT012 OVC022 M03/M08 A2999 RMK AO2
KRZL 141215Z AUTO 08005KT 2 1/2SM -SN SCT014 OVC022 M03/M07 A2998 RMK AO2
KRZL 141155Z AUTO 00000KT 5SM -SN OVC017 M03/M07 A2997 RMK AO2
KRZL 141135Z AUTO 00000KT 10SM -SN BKN019 OVC028 M03/M07 A2995 RMK AO2
KRZL 141115Z AUTO 00000KT 10SM SCT019 BKN032 OVC040 M02/M07 A2994 RMK AO2
KRZL 141055Z AUTO 02008KT 341V041 10SM SCT034 OVC040 M01/M10 A2993 RMK AO2
KRZL 141035Z AUTO 36006KT 10SM OVC040 M01/M09 A2991 RMK AO2
KRZL 141015Z AUTO 36006KT 10SM OVC040 M01/M09 A2990 RMK AO2
KRZL 140955Z AUTO 36006KT 10SM OVC035 M01/M09 A2989 RMK AO2
KRZL 140935Z AUTO 36008G14KT 10SM OVC031 M01/M09 A2988 RMK AO2
KRZL 140915Z AUTO 36010KT 10SM OVC031 M01/M09 A2987 RMK AO2
KRZL 140855Z AUTO 36008G15KT 10SM OVC029 M01/M09 A2987 RMK AO2
KRZL 140835Z AUTO 36011G16KT 10SM OVC029 M01/M08 A2986 RMK AO2
KRZL 140815Z AUTO 36010G14KT 10SM OVC027 M01/M08 A2985 RMK AO2
KRZL 140755Z AUTO 36010G17KT 10SM OVC027 M01/M08 A2983 RMK AO2
KRZL 140735Z AUTO 35010G17KT 10SM OVC027 M01/M08 A2983 RMK AO2
KRZL 140715Z AUTO 35010G17KT 10SM OVC027 00/M07 A2981 RMK AO2
KRZL 140655Z AUTO 33007G16KT 10SM OVC027 00/M07 A2980 RMK AO2
KRZL 140635Z AUTO 34010G20KT 10SM OVC027 00/M08 A2977 RMK AO2
KRZL 140555Z AUTO 35012G18KT 10SM OVC025 00/M07 A2974 RMK AO2